Time;durP1;ratioP1;P1;durP2;ratioP2;P2;SDS_P1;SDS_P2;PMS_P1;PMS_P2;Temp;Humidity;BMP_temperature;BMP_pressure;BME280_temperature;BME280_humidity;BME280_pressure;Samples;Min_cycle;Max_cycle;Signal;HPM_P1;HPM_P2
2021/08/11 03:16:30;;;;;;;;;;;;;;;6.51;98.18;99812.81;5019762;28;19963;-89
2021/08/11 03:18:55;;;;;;;;;;;;;;;6.63;97.24;99824.78;5021901;28;20363;-90
2021/08/11 03:21:24;;;;;;;;;;;;;;;6.65;96.32;99823.00;5022036;28;19936;-90
2021/08/11 03:23:49;;;;;;;;;;;;;;;6.59;99.74;99823.16;5005346;28;19929;-89
2021/08/11 03:26:14;;;;;;;;;;;;;;;6.81;100.00;99828.72;5009202;28;19922;-90
2021/08/11 03:28:40;;;;;;;;;;;;;;;6.86;99.57;99821.56;5013939;28;19936;-90
2021/08/11 03:31:05;;;;;;;;;;;;;;;6.81;100.00;99825.19;5023960;28;20024;-91
2021/08/11 03:33:31;;;;;;;;;;;;;;;6.66;100.00;99824.72;5007012;28;19921;-89
2021/08/11 03:35:56;;;;;;;;;;;;;;;6.82;100.00;99829.56;5006721;28;19921;-90
2021/08/11 03:38:21;;;;;;;;;;;;;;;6.78;100.00;99825.28;5006024;28;19940;-90
2021/08/11 03:40:47;;;;;;;;;;;;;;;6.74;100.00;99829.78;5005121;28;19961;-91
2021/08/11 03:43:12;;;;;;;;;;;;;;;6.93;100.00;99827.50;5023259;28;19917;-90
2021/08/11 03:45:45;;;;;;;;;;;;;;;7.30;100.00;99839.66;5013232;28;19921;-91
2021/08/11 03:48:10;;;;;;;;;;;;;;;7.34;100.00;99825.50;5007853;28;20284;-89
2021/08/11 03:50:35;;;;;;;;;;;;;;;7.35;100.00;99834.25;5005645;28;19929;-89
2021/08/11 03:53:01;;;;;;;;;;;;;;;7.22;100.00;99836.38;5029657;28;19991;-89
2021/08/11 03:55:35;;;;;;;;;;;;;;;7.14;100.00;99833.97;5062758;28;19921;-90
2021/08/11 03:58:00;;;;;;;;;;;;;;;7.62;100.00;99835.22;5044583;28;19921;-90
2021/08/11 04:00:29;;;;;;;;;;;;;;;7.79;100.00;99838.22;5043287;28;19932;-91
2021/08/11 04:02:54;;;;;;;;;;;;;;;8.02;100.00;99841.06;5013309;28;19921;-89
2021/08/11 04:05:19;;;;;;;;;;;;;;;8.39;100.00;99831.94;5022516;28;20212;-88
2021/08/11 04:07:45;;;;;;;;;;;;;;;8.09;100.00;99826.72;5020949;28;19933;-88
2021/08/11 04:10:10;;;;;;;;;;;;;;;7.94;100.00;99841.28;5021104;28;20348;-89
2021/08/11 04:12:36;;;;;;;;;;;;;;;7.91;100.00;99838.75;5021045;28;19922;-88
2021/08/11 04:15:02;;;;;;;;;;;;;;;7.67;100.00;99840.34;5013940;28;20170;-87
2021/08/11 04:17:28;;;;;;;;;;;;;;;7.63;100.00;99834.31;5020966;28;19921;-88
2021/08/11 04:19:53;;;;;;;;;;;;;;;7.46;100.00;99835.66;5012230;28;19933;-88
2021/08/11 04:22:18;;;;;;;;;;;;;;;7.48;100.00;99840.88;5019829;28;19932;-90
2021/08/11 04:24:44;;;;;;;;;;;;;;;7.37;100.00;99846.50;5020756;28;19921;-88
2021/08/11 04:27:09;;;;;;;;;;;;;;;7.32;100.00;99850.16;5020961;28;19925;-87
2021/08/11 04:29:35;;;;;;;;;;;;;;;7.33;100.00;99852.75;5018223;28;19932;-88
2021/08/11 04:32:00;;;;;;;;;;;;;;;7.26;100.00;99845.94;5013715;28;19922;-88
2021/08/11 04:34:26;;;;;;;;;;;;;;;7.05;100.00;99853.53;5024369;28;19921;-92
2021/08/11 04:36:51;;;;;;;;;;;;;;;7.11;100.00;99857.75;5026043;28;20008;-92
2021/08/11 04:39:16;;;;;;;;;;;;;;;7.05;100.00;99853.53;5012434;28;19922;-93
2021/08/11 04:41:42;;;;;;;;;;;;;;;7.07;100.00;99858.75;5020574;28;19929;-92
2021/08/11 04:44:10;;;;;;;;;;;;;;;7.04;100.00;99859.69;5038433;28;19968;-93
2021/08/11 06:45:23;;;;;;;;;;;;;;;6.75;100.00;99891.19;5022476;28;19937;-93
2021/08/11 06:47:49;;;;;;;;;;;;;;;6.68;100.00;99890.50;5007243;28;19925;-93
2021/08/11 06:50:14;;;;;;;;;;;;;;;6.66;100.00;99887.03;5008989;28;20016;-92
2021/08/11 06:52:40;;;;;;;;;;;;;;;6.88;99.94;99892.63;5011615;28;20208;-93
2021/08/11 06:55:07;;;;;;;;;;;;;;;6.76;98.91;99885.03;5011961;28;19972;-93
2021/08/11 06:57:32;;;;;;;;;;;;;;;6.73;100.00;99889.50;5010089;28;19929;-93
2021/08/11 06:59:57;;;;;;;;;;;;;;;6.73;100.00;99894.75;5009802;28;20020;-92
2021/08/11 07:02:23;;;;;;;;;;;;;;;6.76;100.00;99888.53;5010439;28;20012;-93
2021/08/11 07:04:48;;;;;;;;;;;;;;;6.68;100.00;99896.63;5010009;28;20288;-94
2021/08/11 07:07:14;;;;;;;;;;;;;;;6.76;100.00;99896.44;5009468;28;20307;-93
2021/08/11 07:09:39;;;;;;;;;;;;;;;6.68;100.00;99895.75;5009324;28;19957;-94
2021/08/11 07:12:05;;;;;;;;;;;;;;;6.70;100.00;99900.09;5011497;28;19929;-93
2021/08/11 07:14:30;;;;;;;;;;;;;;;6.68;99.03;99895.75;5013052;28;19932;-93
2021/08/11 07:16:56;;;;;;;;;;;;;;;6.74;99.55;99898.25;5013640;28;19932;-92
2021/08/11 07:19:21;;;;;;;;;;;;;;;6.67;100.00;99901.91;5014291;28;19921;-91
2021/08/11 07:21:46;;;;;;;;;;;;;;;6.69;100.00;99901.00;5013610;28;19921;-92
2021/08/11 07:24:12;;;;;;;;;;;;;;;6.67;100.00;99908.06;5012955;28;19925;-92
2021/08/11 07:26:38;;;;;;;;;;;;;;;6.64;100.00;99891.50;5012445;28;19929;-93
2021/08/11 07:29:03;;;;;;;;;;;;;;;6.73;100.00;99901.78;5012503;28;19952;-92
2021/08/11 07:31:29;;;;;;;;;;;;;;;6.76;100.00;99892.94;5012966;28;19921;-93
2021/08/11 07:33:54;;;;;;;;;;;;;;;6.65;100.00;99902.00;5014010;28;19921;-93
2021/08/11 07:36:19;;;;;;;;;;;;;;;6.75;99.87;99901.72;5015592;28;19952;-93
2021/08/11 07:38:45;;;;;;;;;;;;;;;6.76;99.95;99908.75;5014862;28;19929;-93
2021/08/11 07:41:10;;;;;;;;;;;;;;;6.86;99.54;99913.75;5015530;28;19932;-94
2021/08/11 07:43:36;;;;;;;;;;;;;;;6.84;99.34;99918.16;5013347;28;19977;-93
2021/08/11 07:46:01;;;;;;;;;;;;;;;6.79;99.89;99909.53;5017052;28;20059;-92
2021/08/11 07:48:26;;;;;;;;;;;;;;;6.83;99.32;99915.56;5019625;28;19910;-93
